Time;durP1;ratioP1;P1;durP2;ratioP2;P2;SDS_P1;SDS_P2;PMS_P1;PMS_P2;Temp;Humidity;BMP_temperature;BMP_pressure;BME280_temperature;BME280_humidity;BME280_pressure;Samples;Min_cycle;Max_cycle;Signal;HPM_P1;HPM_P2
2022/03/24 00:02:07;;;;;;;35.97;20.52;;;153.70;2022.40;;;;;;4878277;29;20452;-78
2022/03/24 00:04:33;;;;;;;39.05;20.23;;;153.70;2022.40;;;;;;4878612;29;20057;-78
2022/03/24 00:06:59;;;;;;;48.03;26.67;;;153.70;2022.40;;;;;;4878312;29;20400;-75
2022/03/24 00:09:25;;;;;;;72.18;33.80;;;128.90;2048.00;;;;;;4878638;29;20033;-76
2022/03/24 00:11:51;;;;;;;70.63;37.38;;;128.80;2073.60;;;;;;4886344;29;20024;-75
2022/03/24 00:14:17;;;;;;;72.90;40.30;;;128.80;2073.60;;;;;;4899934;29;20013;-76
2022/03/24 00:16:43;;;;;;;56.90;26.38;;;128.60;2073.60;;;;;;4881757;29;20032;-76
2022/03/24 00:19:09;;;;;;;43.85;22.13;;;128.90;2073.60;;;;;;4879132;29;20029;-75
2022/03/24 00:21:36;;;;;;;63.67;30.50;;;128.90;2048.00;;;;;;4878498;29;20091;-78
2022/03/24 00:24:02;;;;;;;64.07;30.20;;;128.70;2073.60;;;;;;4878511;29;20032;-75
2022/03/24 00:26:28;;;;;;;60.00;29.45;;;128.90;2048.00;;;;;;4882394;29;20024;-76
2022/03/24 00:28:53;;;;;;;73.55;37.35;;;128.80;2073.60;;;;;;4881687;29;20515;-78
2022/03/24 00:31:19;;;;;;;91.72;44.60;;;128.80;2073.60;;;;;;4882751;29;20028;-79
2022/03/24 00:33:45;;;;;;;77.70;39.45;;;128.90;2073.60;;;;;;4881416;29;20376;-77
2022/03/24 00:36:14;;;;;;;63.25;33.95;;;128.80;2073.60;;;;;;4882756;29;20062;-76
2022/03/24 00:38:40;;;;;;;81.00;40.97;;;128.60;2099.20;;;;;;4881647;29;20474;-76
2022/03/24 00:41:06;;;;;;;58.78;32.28;;;128.70;2099.20;;;;;;4882321;29;20024;-76
2022/03/24 00:43:32;;;;;;;58.42;30.65;;;128.60;2099.20;;;;;;4881354;29;20084;-80
2022/03/24 00:45:59;;;;;;;71.45;40.90;;;128.50;2099.20;;;;;;4881299;29;20412;-76
2022/03/24 00:48:25;;;;;;;103.70;55.35;;;128.50;2124.80;;;;;;4880933;29;20348;-79
2022/03/24 00:50:52;;;;;;;90.53;47.47;;;128.40;2124.80;;;;;;4881180;29;20036;-77
2022/03/24 00:53:18;;;;;;;56.50;32.40;;;128.40;2124.80;;;;;;4881349;29;20372;-79
2022/03/24 00:55:44;;;;;;;46.78;26.10;;;128.50;2099.20;;;;;;4880744;29;20364;-77
2022/03/24 00:58:10;;;;;;;40.78;22.45;;;128.50;2099.20;;;;;;4882358;29;20104;-78
2022/03/24 01:00:38;;;;;;;48.30;24.08;;;128.40;2099.20;;;;;;4882552;29;20025;-77
2022/03/24 01:03:07;;;;;;;40.60;21.58;;;128.60;2124.80;;;;;;4881600;29;20374;-77
2022/03/24 01:05:37;;;;;;;41.80;21.92;;;128.40;2124.80;;;;;;4880999;29;20033;-75
2022/03/24 01:08:08;;;;;;;48.97;25.63;;;128.50;2124.80;;;;;;4882138;29;20081;-77
2022/03/24 01:10:35;;;;;;;81.10;39.78;;;128.40;2124.80;;;;;;4880613;29;20562;-77
2022/03/24 01:13:01;;;;;;;74.82;40.53;;;128.30;2150.40;;;;;;4880701;29;20029;-77
2022/03/24 01:15:30;;;;;;;69.53;38.50;;;128.00;2176.00;;;;;;4880478;29;20448;-75
2022/03/24 01:17:59;;;;;;;95.53;49.38;;;103.30;2150.40;;;;;;4880725;29;20031;-79
2022/03/24 01:20:25;;;;;;;76.75;41.85;;;103.30;2150.40;;;;;;4880713;29;20475;-78
2022/03/24 01:22:51;;;;;;;92.30;44.03;;;128.00;2176.00;;;;;;4895538;29;20052;-78
2022/03/24 01:25:17;;;;;;;58.60;30.85;;;128.20;2176.00;;;;;;4900521;29;20477;-80
2022/03/24 01:27:42;;;;;;;64.18;33.58;;;128.20;2176.00;;;;;;4883566;29;20021;-77
2022/03/24 01:30:09;;;;;;;65.15;36.45;;;128.10;2176.00;;;;;;4883241;29;20024;-80
2022/03/24 01:32:36;;;;;;;46.42;26.92;;;128.10;2176.00;;;;;;4900450;29;20029;-78
2022/03/24 01:35:03;;;;;;;55.90;27.73;;;128.10;2176.00;;;;;;4899946;29;20036;-78
2022/03/24 01:37:30;;;;;;;30.88;17.35;;;128.00;2176.00;;;;;;4883029;29;20036;-79
2022/03/24 01:39:56;;;;;;;23.30;13.52;;;128.10;2176.00;;;;;;4899923;29;20456;-80
2022/03/24 01:42:22;;;;;;;33.83;16.42;;;128.20;2176.00;;;;;;4883328;29;20035;-76
2022/03/24 01:44:48;;;;;;;30.05;16.13;;;128.30;2176.00;;;;;;4883061;29;20036;-77
2022/03/24 01:47:16;;;;;;;31.23;18.60;;;128.30;2176.00;;;;;;4899797;29;20443;-79
2022/03/24 01:49:44;;;;;;;35.03;19.38;;;128.20;2201.60;;;;;;4883279;29;20024;-80
2022/03/24 01:52:15;;;;;;;42.10;22.75;;;128.20;2201.60;;;;;;4900072;29;20051;-80
2022/03/24 01:54:53;;;;;;;43.03;27.65;;;128.20;2201.60;;;;;;4883198;29;20080;-77
2022/03/24 01:57:20;;;;;;;41.78;23.13;;;128.00;2201.60;;;;;;4882918;29;20028;-77
2022/03/24 01:59:47;;;;;;;61.45;33.20;;;103.30;2201.60;;;;;;4899913;29;20031;-78
2022/03/24 02:02:14;;;;;;;60.33;34.45;;;103.10;2201.60;;;;;;4883005;29;20081;-79
2022/03/24 02:04:40;;;;;;;53.47;29.42;;;103.00;2201.60;;;;;;4883051;29;20025;-78
2022/03/24 02:07:08;;;;;;;58.13;33.10;;;103.20;2201.60;;;;;;4882645;29;20056;-75
2022/03/24 02:09:35;;;;;;;54.22;29.63;;;103.10;2201.60;;;;;;4883608;29;20028;-78
2022/03/24 02:12:03;;;;;;;61.00;33.63;;;103.20;2201.60;;;;;;4885297;29;20511;-79
2022/03/24 02:14:29;;;;;;;58.10;32.03;;;128.00;2227.20;;;;;;4901667;29;20020;-79
2022/03/24 02:16:56;;;;;;;57.42;31.90;;;103.30;2176.00;;;;;;4882874;29;20029;-79
2022/03/24 02:19:24;;;;;;;62.17;34.15;;;103.30;2201.60;;;;;;4882657;29;20024;-80
2022/03/24 02:21:52;;;;;;;63.03;34.35;;;103.20;2201.60;;;;;;4882377;29;20052;-80
2022/03/24 02:24:20;;;;;;;60.47;35.00;;;103.30;2201.60;;;;;;4899409;29;20032;-80
2022/03/24 02:26:47;;;;;;;62.42;33.35;;;103.00;2227.20;;;;;;4882554;29;20139;-79
2022/03/24 02:29:15;;;;;;;60.25;34.38;;;103.00;2227.20;;;;;;4882614;29;20036;-80
2022/03/24 02:31:44;;;;;;;55.00;31.30;;;102.80;2227.20;;;;;;4882695;29;20032;-81
2022/03/24 02:36:59;;;;;;;52.22;30.35;;;102.80;2227.20;;;;;;4899427;29;20035;-79
2022/03/24 02:39:25;;;;;;;51.35;26.15;;;102.60;2227.20;;;;;;4882246;29;20061;-80
2022/03/24 02:41:54;;;;;;;47.55;27.98;;;102.60;2227.20;;;;;;4882345;29;20055;-82
2022/03/24 02:44:22;;;;;;;55.50;27.23;;;102.70;2227.20;;;;;;4882406;29;20526;-81
2022/03/24 02:46:49;;;;;;;54.78;30.85;;;102.60;2227.20;;;;;;4898681;29;20016;-84
2022/03/24 02:49:18;;;;;;;46.92;26.77;;;102.60;2227.20;;;;;;4898349;29;20387;-81
2022/03/24 02:51:44;;;;;;;49.75;28.35;;;102.80;2227.20;;;;;;4899428;29;20032;-79
2022/03/24 02:54:11;;;;;;;56.30;28.90;;;102.50;2227.20;;;;;;4881822;29;20025;-80
2022/03/24 02:56:38;;;;;;;51.40;29.90;;;102.70;2227.20;;;;;;4882255;29;20024;-80
2022/03/24 02:59:06;;;;;;;57.53;33.17;;;102.90;2227.20;;;;;;4882267;29;20116;-80
2022/03/24 03:01:38;;;;;;;56.85;30.77;;;102.80;2227.20;;;;;;4882087;29;20028;-77
2022/03/24 03:04:05;;;;;;;63.87;34.13;;;102.80;2227.20;;;;;;4882210;29;20025;-80
2022/03/24 03:06:34;;;;;;;55.80;28.27;;;102.80;2227.20;;;;;;4882025;29;20021;-80
2022/03/24 03:09:02;;;;;;;54.58;28.08;;;102.50;2227.20;;;;;;4881710;29;20025;-76
2022/03/24 03:11:30;;;;;;;50.50;28.60;;;77.70;2227.20;;;;;;4882101;29;20419;-81
2022/03/24 03:13:56;;;;;;;50.33;26.02;;;102.40;2227.20;;;;;;4882042;29;20080;-81
2022/03/24 03:16:23;;;;;;;49.92;26.13;;;77.70;2227.20;;;;;;4881699;29;20123;-83
2022/03/24 03:18:48;;;;;;;41.13;23.77;;;77.70;2227.20;;;;;;4882147;29;20059;-80
2022/03/24 03:21:16;;;;;;;45.38;24.15;;;77.70;2227.20;;;;;;4897926;29;20060;-78
2022/03/24 03:23:43;;;;;;;41.38;22.58;;;102.40;2227.20;;;;;;4881982;29;20522;-81
2022/03/24 03:26:11;;;;;;;49.25;25.08;;;102.60;2227.20;;;;;;4881930;29;20455;-78
2022/03/24 03:28:37;;;;;;;45.97;26.00;;;77.70;2227.20;;;;;;4881563;29;20035;-83
2022/03/24 03:31:05;;;;;;;44.60;24.45;;;77.50;2227.20;;;;;;4881638;29;20025;-81
2022/03/24 03:33:32;;;;;;;45.03;24.10;;;77.70;2227.20;;;;;;4881826;29;20029;-77
2022/03/24 03:35:58;;;;;;;52.05;25.77;;;77.60;2227.20;;;;;;4881680;29;20025;-79
2022/03/24 03:38:24;;;;;;;52.72;28.27;;;77.70;2227.20;;;;;;4881823;29;20367;-79
2022/03/24 03:40:52;;;;;;;97.90;45.28;;;102.40;2227.20;;;;;;4899995;29;20031;-78
2022/03/24 03:43:18;;;;;;;73.25;36.42;;;102.40;2227.20;;;;;;4884579;29;20096;-83
2022/03/24 03:45:44;;;;;;;69.90;36.83;;;77.60;2227.20;;;;;;4884423;29;20027;-78
2022/03/24 03:48:11;;;;;;;61.72;31.55;;;77.70;2227.20;;;;;;4900704;29;20506;-80
2022/03/24 03:50:38;;;;;;;64.60;31.38;;;77.70;2227.20;;;;;;4881422;29;20063;-81
2022/03/24 03:53:04;;;;;;;58.40;29.05;;;102.40;2227.20;;;;;;4881767;29;20024;-81
2022/03/24 03:55:30;;;;;;;60.33;33.85;;;77.70;2227.20;;;;;;4881569;29;20025;-77
2022/03/24 03:57:56;;;;;;;66.93;35.80;;;77.70;2227.20;;;;;;4881476;29;20021;-77
2022/03/24 04:03:06;;;;;;;63.40;35.38;;;77.60;2227.20;;;;;;4901910;29;20044;-79
2022/03/24 04:05:35;;;;;;;69.45;38.83;;;77.70;2227.20;;;;;;4885121;29;20028;-79
2022/03/24 04:08:01;;;;;;;59.65;35.58;;;77.60;2227.20;;;;;;4901763;29;20021;-79
2022/03/24 04:10:27;;;;;;;52.55;32.08;;;77.60;2227.20;;;;;;4884961;29;20043;-80
2022/03/24 04:12:59;;;;;;;56.38;31.13;;;77.70;2227.20;;;;;;4885228;29;20403;-80
2022/03/24 04:15:26;;;;;;;70.55;36.40;;;77.40;2227.20;;;;;;4884838;29;20103;-79
2022/03/24 04:17:52;;;;;;;68.30;35.33;;;77.50;2227.20;;;;;;4885006;29;20056;-79
2022/03/24 04:20:21;;;;;;;59.55;33.50;;;77.60;2227.20;;;;;;4901462;29;20025;-78
2022/03/24 04:22:55;;;;;;;57.13;31.90;;;77.40;2227.20;;;;;;4884621;29;20473;-80
2022/03/24 04:25:21;;;;;;;57.72;34.65;;;77.60;2227.20;;;;;;4884716;29;20029;-81
2022/03/24 04:27:48;;;;;;;62.85;34.10;;;77.40;2227.20;;;;;;4885020;29;20080;-80
2022/03/24 04:30:14;;;;;;;62.00;33.15;;;77.20;2227.20;;;;;;4884876;29;20029;-83
2022/03/24 04:32:41;;;;;;;55.53;30.10;;;77.40;2227.20;;;;;;4901349;29;20035;-76
2022/03/24 04:35:08;;;;;;;64.35;35.67;;;77.40;2227.20;;;;;;4901618;29;20080;-80
2022/03/24 04:37:35;;;;;;;52.10;31.17;;;77.20;2227.20;;;;;;4884802;29;20367;-78
2022/03/24 04:40:03;;;;;;;70.78;36.05;;;77.30;2227.20;;;;;;4884460;29;20376;-79
2022/03/24 04:42:29;;;;;;;83.50;46.70;;;77.10;2227.20;;;;;;4901010;29;20112;-78
2022/03/24 04:44:56;;;;;;;114.88;59.90;;;77.00;2227.20;;;;;;4884175;29;20040;-81
2022/03/24 04:47:22;;;;;;;213.80;124.63;;;77.20;2227.20;;;;;;4901074;29;20383;-83
2022/03/24 04:49:48;;;;;;;169.20;95.82;;;77.00;2227.20;;;;;;4884412;29;20024;-83
2022/03/24 04:52:14;;;;;;;136.85;78.22;;;77.10;2227.20;;;;;;4884236;29;20103;-76
2022/03/24 04:54:39;;;;;;;86.18;47.85;;;77.20;2227.20;;;;;;4884280;29;20542;-78
2022/03/24 04:57:06;;;;;;;94.30;51.63;;;77.20;2227.20;;;;;;4901085;29;20017;-78
2022/03/24 04:59:32;;;;;;;74.90;45.58;;;77.20;2227.20;;;;;;4901141;29;20448;-79
2022/03/24 05:01:58;;;;;;;87.30;50.47;;;77.30;2227.20;;;;;;4884233;29;20033;-77
2022/03/24 05:04:24;;;;;;;94.43;59.88;;;77.10;2227.20;;;;;;4901006;29;20052;-77
2022/03/24 05:06:53;;;;;;;104.10;61.00;;;77.00;2227.20;;;;;;4900710;29;20021;-77
2022/03/24 05:09:19;;;;;;;100.97;59.88;;;77.20;2227.20;;;;;;4884062;29;20416;-76
2022/03/24 05:11:45;;;;;;;100.85;62.60;;;77.20;2227.20;;;;;;4883604;29;20054;-76
2022/03/24 05:14:12;;;;;;;104.95;61.30;;;77.20;2227.20;;;;;;4883823;29;20056;-80
2022/03/24 05:16:38;;;;;;;110.15;56.60;;;77.40;2227.20;;;;;;4884060;29;20035;-79
2022/03/24 05:19:04;;;;;;;115.53;66.38;;;77.40;2227.20;;;;;;4884192;29;20024;-80
2022/03/24 05:21:32;;;;;;;110.70;70.60;;;77.50;2227.20;;;;;;4883426;29;20076;-76
2022/03/24 05:23:59;;;;;;;115.68;70.97;;;77.50;2227.20;;;;;;4903625;29;20443;-80
2022/03/24 05:26:25;;;;;;;106.95;61.90;;;77.70;2227.20;;;;;;4887233;29;20216;-82
2022/03/24 05:28:51;;;;;;;78.68;45.70;;;77.40;2227.20;;;;;;4900658;29;20028;-83
2022/03/24 05:31:18;;;;;;;65.85;39.60;;;77.30;2227.20;;;;;;4883782;29;20032;-79
2022/03/24 05:33:44;;;;;;;66.90;39.00;;;77.30;2227.20;;;;;;4900782;29;20024;-78
2022/03/24 05:36:11;;;;;;;64.55;35.10;;;77.50;2227.20;;;;;;4883524;29;20172;-81
2022/03/24 05:38:37;;;;;;;71.70;38.17;;;77.50;2227.20;;;;;;4883694;29;20538;-79
2022/03/24 05:41:04;;;;;;;62.35;32.33;;;77.50;2227.20;;;;;;4883546;29;20028;-80
2022/03/24 05:43:31;;;;;;;57.92;34.15;;;77.70;2227.20;;;;;;4883343;29;20029;-79
2022/03/24 05:45:57;;;;;;;55.90;35.25;;;102.50;2227.20;;;;;;4883195;29;20024;-78
2022/03/24 05:48:23;;;;;;;65.63;36.55;;;102.60;2227.20;;;;;;4883384;29;20029;-77
2022/03/24 05:50:49;;;;;;;55.20;30.63;;;102.80;2227.20;;;;;;4900219;29;20021;-81
2022/03/24 05:53:16;;;;;;;67.93;33.60;;;102.80;2227.20;;;;;;4899936;29;20408;-82
2022/03/24 05:55:42;;;;;;;66.55;36.58;;;103.00;2227.20;;;;;;4883285;29;20024;-82
2022/03/24 05:58:08;;;;;;;69.35;39.15;;;103.00;2227.20;;;;;;4900156;29;20027;-80
2022/03/24 06:00:40;;;;;;;71.28;37.22;;;103.00;2227.20;;;;;;4899814;29;20021;-80
2022/03/24 06:03:06;;;;;;;66.87;34.43;;;103.00;2227.20;;;;;;4882847;29;20139;-84
2022/03/24 06:05:32;;;;;;;56.47;33.05;;;102.90;2227.20;;;;;;4899711;29;20279;-82
2022/03/24 06:08:00;;;;;;;60.00;34.85;;;103.00;2227.20;;;;;;4899864;29;20071;-81
2022/03/24 06:10:27;;;;;;;57.17;31.08;;;103.10;2227.20;;;;;;4882787;29;20366;-82
2022/03/24 06:12:53;;;;;;;49.95;31.33;;;103.20;2227.20;;;;;;4883106;29;20024;-83
2022/03/24 06:15:19;;;;;;;56.35;31.92;;;103.10;2227.20;;;;;;4882978;29;20076;-81
2022/03/24 06:17:45;;;;;;;68.30;35.47;;;103.10;2227.20;;;;;;4882727;29;20485;-81
2022/03/24 06:20:12;;;;;;;49.20;30.90;;;103.20;2227.20;;;;;;4882800;29;20028;-79
2022/03/24 06:22:52;;;;;;;48.60;29.30;;;103.20;2227.20;;;;;;4882609;29;20607;-81
2022/03/24 06:25:20;;;;;;;54.15;29.98;;;128.00;2252.80;;;;;;4882797;29;20080;-81
2022/03/24 06:27:52;;;;;;;51.55;30.13;;;128.20;2252.80;;;;;;4882928;29;20028;-78
2022/03/24 06:30:19;;;;;;;50.33;26.83;;;128.40;2252.80;;;;;;4882649;29;20447;-82
2022/03/24 06:32:46;;;;;;;44.17;24.70;;;128.60;2252.80;;;;;;4882914;29;20036;-82
2022/03/24 06:35:13;;;;;;;48.80;24.13;;;128.70;2252.80;;;;;;4882618;29;20482;-82
2022/03/24 06:37:40;;;;;;;41.47;21.75;;;128.70;2252.80;;;;;;4882384;29;20036;-81
2022/03/24 06:40:14;;;;;;;32.90;19.80;;;128.80;2252.80;;;;;;4882659;29;20379;-78
2022/03/24 06:42:41;;;;;;;38.03;20.73;;;153.60;2252.80;;;;;;4882436;29;20036;-79
2022/03/24 06:45:10;;;;;;;42.42;21.95;;;153.60;2252.80;;;;;;4882395;29;20032;-81
2022/03/24 06:47:36;;;;;;;28.75;18.58;;;153.80;2252.80;;;;;;4899290;29;20016;-79
2022/03/24 06:50:03;;;;;;;35.10;18.08;;;154.00;2252.80;;;;;;4882490;29;20020;-80
2022/03/24 06:52:29;;;;;;;47.65;21.13;;;154.50;2252.80;;;;;;4898645;29;20028;-82
2022/03/24 06:54:55;;;;;;;30.55;18.48;;;154.30;2252.80;;;;;;4882446;29;20039;-82
2022/03/24 06:57:21;;;;;;;23.05;15.05;;;154.30;2252.80;;;;;;4882524;29;20040;-79
2022/03/24 06:59:47;;;;;;;23.02;15.13;;;154.40;2227.20;;;;;;4898749;29;20034;-79
2022/03/24 07:02:13;;;;;;;32.22;17.23;;;154.50;2227.20;;;;;;4896802;29;20100;-76
2022/03/24 07:04:39;;;;;;;28.42;17.98;;;179.20;2227.20;;;;;;4900009;29;20048;-79
2022/03/24 07:07:05;;;;;;;30.65;17.92;;;179.30;2201.60;;;;;;4883080;29;20034;-77
2022/03/24 07:09:31;;;;;;;34.33;18.17;;;179.50;2201.60;;;;;;4883142;29;20031;-75
2022/03/24 07:11:57;;;;;;;44.00;21.63;;;179.60;2176.00;;;;;;4881959;29;20024;-79
2022/03/24 07:14:24;;;;;;;39.78;25.15;;;179.60;2176.00;;;;;;4898207;29;20025;-79
2022/03/24 07:16:51;;;;;;;44.90;22.50;;;179.70;2176.00;;;;;;4882199;29;20025;-77
2022/03/24 07:19:18;;;;;;;40.85;24.17;;;179.90;2176.00;;;;;;4881420;29;20033;-77
2022/03/24 07:21:44;;;;;;;35.92;22.38;;;180.00;2150.40;;;;;;4881776;29;20135;-78
2022/03/24 07:24:10;;;;;;;28.92;18.00;;;180.10;2150.40;;;;;;4882151;29;20115;-78
2022/03/24 07:26:36;;;;;;;28.02;17.83;;;204.80;2124.80;;;;;;4881642;29;20024;-80
2022/03/24 07:29:02;;;;;;;24.20;13.02;;;205.10;2073.60;;;;;;4881883;29;20028;-78
2022/03/24 07:31:28;;;;;;;25.55;13.35;;;205.20;2022.40;;;;;;4881926;29;20029;-77
2022/03/24 07:33:56;;;;;;;24.73;13.52;;;205.20;2022.40;;;;;;4882655;29;20061;-76
2022/03/24 07:36:22;;;;;;;23.60;14.20;;;205.30;2022.40;;;;;;4902853;29;20036;-78
2022/03/24 07:38:50;;;;;;;25.55;14.55;;;205.50;2048.00;;;;;;4885550;29;20025;-77
2022/03/24 07:41:16;;;;;;;23.90;15.73;;;205.60;2048.00;;;;;;4885375;29;20379;-77
2022/03/24 07:43:42;;;;;;;27.25;15.73;;;205.70;2048.00;;;;;;4885461;29;20543;-78
2022/03/24 07:46:07;;;;;;;30.63;16.77;;;230.50;2048.00;;;;;;4885447;29;20036;-77
2022/03/24 07:48:33;;;;;;;25.85;14.93;;;230.50;2048.00;;;;;;4902055;29;20043;-79
2022/03/24 07:51:03;;;;;;;28.58;17.67;;;230.60;2022.40;;;;;;4885375;29;20084;-79
2022/03/24 07:53:28;;;;;;;26.90;13.05;;;230.70;1996.80;;;;;;4901955;29;20100;-78
2022/03/24 07:55:59;;;;;;;22.20;12.40;;;230.90;1920.00;;;;;;4885190;29;20052;-77
2022/03/24 07:58:25;;;;;;;28.52;13.05;;;231.10;1894.40;;;;;;4902356;29;20064;-77
2022/03/24 08:00:51;;;;;;;22.88;13.15;;;231.20;1868.80;;;;;;4885184;29;20029;-75
2022/03/24 08:03:20;;;;;;;19.67;12.57;;;231.30;1894.40;;;;;;4901791;29;20451;-78
2022/03/24 08:05:47;;;;;;;24.10;13.50;;;256.00;1868.80;;;;;;4885222;29;20025;-79
2022/03/24 08:08:14;;;;;;;25.30;14.18;;;256.20;1843.20;;;;;;4901683;29;20099;-77
2022/03/24 08:10:41;;;;;;;28.95;16.23;;;256.40;1868.80;;;;;;4885003;29;20347;-78
2022/03/24 08:13:08;;;;;;;24.13;13.95;;;256.60;1843.20;;;;;;4901818;29;20458;-77
2022/03/24 08:15:36;;;;;;;28.38;14.00;;;256.70;1843.20;;;;;;4884796;29;20021;-78
2022/03/24 08:18:04;;;;;;;27.20;14.02;;;256.90;1817.60;;;;;;4901918;29;20028;-76
2022/03/24 08:20:33;;;;;;;21.23;13.43;;;281.60;1843.20;;;;;;4884957;29;20033;-78
2022/03/24 08:22:59;;;;;;;22.88;14.85;;;281.70;1843.20;;;;;;4884555;29;20432;-79
2022/03/24 08:25:25;;;;;;;26.45;14.55;;;281.70;1817.60;;;;;;4884458;29;20040;-77
2022/03/24 08:27:51;;;;;;;29.52;16.27;;;281.90;1817.60;;;;;;4901558;29;20051;-76
2022/03/24 08:30:17;;;;;;;22.85;13.98;;;282.00;1817.60;;;;;;4884387;29;20485;-79
2022/03/24 08:32:43;;;;;;;23.05;14.07;;;282.10;1792.00;;;;;;4884687;29;20032;-77
2022/03/24 08:35:09;;;;;;;26.13;13.02;;;282.30;1792.00;;;;;;4885007;29;20028;-78
2022/03/24 08:37:36;;;;;;;21.13;12.82;;;282.30;1766.40;;;;;;4887426;29;20108;-77
2022/03/24 08:40:02;;;;;;;27.33;14.55;;;281.80;1766.40;;;;;;4886827;29;20024;-78
2022/03/24 08:42:28;;;;;;;28.10;15.25;;;282.50;1792.00;;;;;;4901183;29;20032;-76
2022/03/24 08:44:56;;;;;;;28.40;16.35;;;282.50;1766.40;;;;;;4883522;29;20092;-77
2022/03/24 08:51:03;;;;;;;25.13;13.75;;;307.60;1766.40;;;;;;4842754;29;20124;-81
2022/03/24 08:53:29;;;;;;;25.40;14.10;;;307.80;1740.80;;;;;;4827783;29;20046;-79
2022/03/24 08:55:55;;;;;;;31.73;18.40;;;307.90;1740.80;;;;;;4884825;29;20048;-80
2022/03/24 08:58:21;;;;;;;21.85;12.88;;;308.10;1740.80;;;;;;4901090;29;20103;-82
2022/03/24 09:00:48;;;;;;;22.92;14.55;;;332.80;1740.80;;;;;;4884167;29;20115;-80
2022/03/24 09:03:14;;;;;;;27.63;13.38;;;333.10;1766.40;;;;;;4901040;29;20040;-80
2022/03/24 09:05:40;;;;;;;26.38;14.10;;;333.10;1740.80;;;;;;4883868;29;20028;-77
2022/03/24 09:08:06;;;;;;;25.65;14.48;;;333.10;1766.40;;;;;;4884203;29;20029;-77
2022/03/24 09:10:32;;;;;;;32.83;13.63;;;333.20;1766.40;;;;;;4900840;29;20024;-77
2022/03/24 09:13:01;;;;;;;22.10;11.73;;;333.30;1740.80;;;;;;4883530;29;20542;-76
2022/03/24 09:15:27;;;;;;;23.02;13.70;;;333.60;1715.20;;;;;;4884026;29;20059;-78
2022/03/24 09:18:13;;;;;;;23.95;13.13;;;358.40;1715.20;;;;;;4883785;29;20399;-79
2022/03/24 09:20:40;;;;;;;22.27;13.23;;;358.40;1689.60;;;;;;4883773;29;20059;-77
2022/03/24 09:23:09;;;;;;;18.60;11.35;;;358.70;1664.00;;;;;;4883368;29;20059;-77
2022/03/24 09:25:34;;;;;;;23.38;12.55;;;358.80;1664.00;;;;;;4883486;29;20371;-78
2022/03/24 09:28:00;;;;;;;22.58;13.63;;;359.00;1664.00;;;;;;4883469;29;20029;-76
2022/03/24 09:30:26;;;;;;;28.73;13.52;;;359.10;1638.40;;;;;;4883622;29;20119;-78
2022/03/24 09:32:52;;;;;;;23.98;13.23;;;359.10;1638.40;;;;;;4883321;29;20033;-81
2022/03/24 09:35:18;;;;;;;31.50;13.80;;;359.20;1638.40;;;;;;4882715;29;20024;-79
2022/03/24 09:37:44;;;;;;;24.30;10.93;;;359.30;1638.40;;;;;;4882933;29;20024;-78
2022/03/24 09:40:12;;;;;;;21.42;10.50;;;384.10;1587.20;;;;;;4900513;29;20111;-77
2022/03/24 09:42:38;;;;;;;23.90;13.20;;;384.40;1536.00;;;;;;4884817;29;20087;-79
2022/03/24 09:45:06;;;;;;;18.70;11.38;;;384.50;1536.00;;;;;;4885722;29;20032;-79
2022/03/24 09:47:33;;;;;;;20.33;10.98;;;384.60;1536.00;;;;;;4885070;29;20079;-77
2022/03/24 09:49:59;;;;;;;22.48;11.18;;;384.50;1536.00;;;;;;4884594;29;20121;-77
2022/03/24 09:52:25;;;;;;;25.15;11.20;;;384.50;1536.00;;;;;;4885148;29;20032;-77
2022/03/24 09:54:53;;;;;;;18.52;9.50;;;384.70;1510.40;;;;;;4885081;29;20021;-75
2022/03/24 09:57:20;;;;;;;17.35;10.93;;;409.80;1510.40;;;;;;4884876;29;20024;-79
2022/03/24 09:59:46;;;;;;;19.27;11.60;;;409.80;1459.20;;;;;;4883142;29;20025;-78
2022/03/24 10:02:12;;;;;;;21.45;11.75;;;410.00;1484.80;;;;;;4882669;29;20033;-79
2022/03/24 10:04:50;;;;;;;17.15;9.45;;;410.40;1484.80;;;;;;4899893;29;20209;-78
2022/03/24 10:07:18;;;;;;;14.80;9.30;;;435.30;1433.60;;;;;;4882624;29;20040;-77
2022/03/24 10:09:47;;;;;;;17.85;10.75;;;435.30;1459.20;;;;;;4882696;29;20556;-79
2022/03/24 10:12:30;;;;;;;22.00;10.63;;;435.20;1433.60;;;;;;4882779;29;20035;-80
2022/03/24 10:14:56;;;;;;;17.52;9.82;;;435.30;1433.60;;;;;;4882785;29;20056;-81
2022/03/24 10:17:22;;;;;;;19.48;10.43;;;435.50;1408.00;;;;;;4882594;29;20420;-80
2022/03/24 10:19:57;;;;;;;17.20;10.90;;;435.70;1382.40;;;;;;4882675;29;20031;-78
2022/03/24 10:22:23;;;;;;;17.05;10.07;;;435.80;1382.40;;;;;;4882247;29;20077;-76
2022/03/24 10:24:49;;;;;;;18.15;9.75;;;435.80;1382.40;;;;;;4906485;29;20103;-79
2022/03/24 10:27:26;;;;;;;20.38;10.07;;;436.10;1356.80;;;;;;4906083;29;20083;-80
2022/03/24 10:29:57;;;;;;;22.98;11.63;;;460.80;1356.80;;;;;;4882953;29;20059;-78
2022/03/24 10:32:33;;;;;;;14.65;8.13;;;461.10;1331.20;;;;;;4882550;29;20024;-80
2022/03/24 10:35:13;;;;;;;16.88;7.97;;;461.30;1280.00;;;;;;4899452;29;20025;-78
2022/03/24 10:37:51;;;;;;;14.32;9.35;;;461.30;1280.00;;;;;;4899178;29;20055;-80
2022/03/24 10:40:17;;;;;;;12.73;8.00;;;461.50;1254.40;;;;;;4882466;29;20094;-77
2022/03/24 10:42:43;;;;;;;13.98;8.63;;;461.50;1254.40;;;;;;4898644;29;20063;-77
2022/03/24 10:45:11;;;;;;;15.38;7.78;;;461.50;1228.80;;;;;;4882186;29;20111;-79
2022/03/24 10:48:13;;;;;;;17.83;9.80;;;461.60;1254.40;;;;;;4882193;29;20028;-78
2022/03/24 10:50:40;;;;;;;11.65;7.18;;;486.40;1228.80;;;;;;4882004;29;20025;-80
2022/03/24 10:53:07;;;;;;;16.58;9.82;;;486.60;1203.20;;;;;;4882381;29;20033;-79
2022/03/24 10:55:39;;;;;;;16.20;7.13;;;486.70;1177.60;;;;;;4882445;29;20028;-81
2022/03/24 10:58:09;;;;;;;12.50;6.50;;;486.80;1177.60;;;;;;4899287;29;20024;-81
2022/03/24 11:00:39;;;;;;;17.13;7.30;;;487.00;1152.00;;;;;;4882185;29;20042;-80
2022/03/24 11:03:05;;;;;;;11.23;7.50;;;487.30;1152.00;;;;;;4882238;29;20041;-80
2022/03/24 11:05:31;;;;;;;18.50;11.30;;;512.10;1152.00;;;;;;4882060;29;20044;-80
2022/03/24 11:07:57;;;;;;;12.35;9.82;;;512.20;1126.40;;;;;;4882086;29;20443;-78
2022/03/24 11:10:24;;;;;;;16.40;7.47;;;512.60;1126.40;;;;;;4898651;29;20025;-81
2022/03/24 11:12:54;;;;;;;14.77;9.48;;;537.60;1152.00;;;;;;4882496;29;20378;-79
2022/03/24 11:15:20;;;;;;;14.35;9.20;;;537.80;1177.60;;;;;;4881169;29;20052;-79
2022/03/24 11:17:47;;;;;;;13.98;7.97;;;538.00;1152.00;;;;;;4898177;29;20024;-80
2022/03/24 11:20:13;;;;;;;15.20;7.72;;;537.90;1126.40;;;;;;4898939;29;20021;-80
2022/03/24 11:23:01;;;;;;;15.40;8.35;;;538.10;1126.40;;;;;;4881567;29;20052;-80
2022/03/24 11:25:29;;;;;;;15.10;7.05;;;538.50;1100.80;;;;;;4881784;29;20024;-80
2022/03/24 11:27:56;;;;;;;14.00;7.65;;;563.20;1126.40;;;;;;4881973;29;20029;-79
2022/03/24 11:30:23;;;;;;;16.40;7.18;;;563.20;1126.40;;;;;;4898972;29;20040;-80
2022/03/24 11:32:52;;;;;;;14.63;8.52;;;563.40;1126.40;;;;;;4881069;29;20081;-80
2022/03/24 11:35:20;;;;;;;14.10;7.32;;;563.60;1126.40;;;;;;4898431;29;20031;-80
2022/03/24 11:37:48;;;;;;;15.00;9.73;;;563.60;1100.80;;;;;;4881913;29;20028;-80
2022/03/24 11:40:23;;;;;;;14.48;7.13;;;563.90;1126.40;;;;;;4898343;29;20021;-78
2022/03/24 11:42:54;;;;;;;13.30;6.65;;;563.60;1075.20;;;;;;4881144;29;20158;-78
2022/03/24 11:45:31;;;;;;;14.00;7.47;;;563.60;1075.20;;;;;;4897809;29;20420;-78
2022/03/24 11:48:09;;;;;;;21.85;11.02;;;563.70;1100.80;;;;;;4898750;29;20451;-79
2022/03/24 11:50:38;;;;;;;21.48;11.32;;;564.10;1100.80;;;;;;4883371;29;20068;-78
2022/03/24 11:53:23;;;;;;;13.70;9.00;;;588.90;1075.20;;;;;;4885156;29;20036;-76
2022/03/24 11:56:03;;;;;;;19.23;12.00;;;589.10;1075.20;;;;;;4883270;29;20112;-79
2022/03/24 11:58:32;;;;;;;16.77;8.73;;;589.30;1100.80;;;;;;4881800;29;20024;-79
2022/03/24 12:01:18;;;;;;;16.90;11.18;;;588.90;1100.80;;;;;;4881375;29;20020;-77
2022/03/24 12:04:03;;;;;;;15.90;9.35;;;589.20;1100.80;;;;;;4881407;29;20029;-77
2022/03/24 12:06:41;;;;;;;15.80;8.50;;;589.20;1075.20;;;;;;4881393;29;20025;-82
2022/03/24 12:09:12;;;;;;;21.58;12.35;;;588.90;1075.20;;;;;;4881569;29;20036;-78
2022/03/24 12:11:47;;;;;;;23.65;10.77;;;589.00;1075.20;;;;;;4898458;29;20029;-79
2022/03/24 12:14:20;;;;;;;16.40;9.88;;;589.20;1100.80;;;;;;4897871;29;20020;-79